Time;durP1;ratioP1;P1;durP2;ratioP2;P2;SDS_P1;SDS_P2;PMS_P1;PMS_P2;Temp;Humidity;BMP_temperature;BMP_pressure;BME280_temperature;BME280_humidity;BME280_pressure;Samples;Min_cycle;Max_cycle;Signal;HPM_P1;HPM_P2
2021/12/02 00:01:07;;;;;;;11.25;3.22;;;;;;;;;;5043792;28;20042;-61
2021/12/02 00:03:35;;;;;;;8.93;1.90;;;;;;;;;;5029735;28;20032;-61
2021/12/02 00:06:01;;;;;;;14.30;2.47;;;;;;;;;;5046919;28;20063;-61
2021/12/02 00:08:28;;;;;;;8.30;1.70;;;;;;;;;;5049629;28;20033;-62
2021/12/02 00:10:54;;;;;;;14.75;2.30;;;;;;;;;;5038751;28;20104;-62
2021/12/02 00:13:25;;;;;;;6.85;1.42;;;;;;;;;;5049113;28;20087;-61
2021/12/02 00:16:10;;;;;;;11.15;2.90;;;;;;;;;;5046752;28;20056;-61
2021/12/02 00:21:16;;;;;;;6.60;2.60;;;;;;;;;;5035716;28;20032;-61
2021/12/02 00:23:48;;;;;;;4.28;1.58;;;;;;;;;;5040708;28;20038;-61
2021/12/02 00:26:15;;;;;;;8.05;1.75;;;;;;;;;;5050017;28;20037;-61
2021/12/02 00:28:42;;;;;;;7.68;1.77;;;;;;;;;;5071805;28;20063;-62
2021/12/02 00:31:14;;;;;;;3.88;1.65;;;;;;;;;;5088922;28;20020;-61
2021/12/02 00:33:42;;;;;;;6.40;1.47;;;;;;;;;;5082721;28;20028;-61
2021/12/02 00:36:09;;;;;;;4.63;1.45;;;;;;;;;;5077399;28;20294;-61
2021/12/02 00:38:35;;;;;;;13.00;2.28;;;;;;;;;;5076504;28;20020;-61
2021/12/02 00:41:01;;;;;;;10.20;1.73;;;;;;;;;;5054167;28;20025;-61
2021/12/02 00:43:28;;;;;;;12.95;2.95;;;;;;;;;;5091660;28;20028;-61
2021/12/02 00:45:54;;;;;;;4.18;1.80;;;;;;;;;;5092015;28;20024;-61
2021/12/02 00:48:21;;;;;;;6.72;1.50;;;;;;;;;;5092199;28;20028;-61
2021/12/02 00:50:48;;;;;;;12.30;1.90;;;;;;;;;;5076113;28;20028;-61
2021/12/02 00:53:18;;;;;;;4.45;1.55;;;;;;;;;;5086877;28;20426;-61
2021/12/02 00:55:45;;;;;;;7.50;1.65;;;;;;;;;;5076335;28;20024;-61
2021/12/02 00:58:18;;;;;;;8.73;1.73;;;;;;;;;;5091950;28;20093;-61
2021/12/02 01:00:45;;;;;;;3.50;1.80;;;;;;;;;;5091448;28;20408;-62
2021/12/02 01:03:13;;;;;;;7.97;1.55;;;;;;;;;;5086018;28;20039;-61
2021/12/02 01:05:40;;;;;;;5.25;1.42;;;;;;;;;;5084893;28;20024;-61
2021/12/02 01:08:06;;;;;;;5.13;1.75;;;;;;;;;;5085598;28;20032;-61
2021/12/02 01:10:32;;;;;;;7.13;1.25;;;;;;;;;;5091786;28;20045;-61
2021/12/02 01:12:58;;;;;;;6.50;1.50;;;;;;;;;;5091374;28;20017;-61
2021/12/02 01:15:25;;;;;;;6.72;1.70;;;;;;;;;;5083512;28;20036;-61
2021/12/02 01:17:52;;;;;;;10.13;2.28;;;;;;;;;;5089301;28;20048;-61
2021/12/02 01:20:18;;;;;;;5.68;1.63;;;;;;;;;;5091602;28;20119;-62
2021/12/02 01:22:47;;;;;;;9.55;1.95;;;;;;;;;;5061519;28;20032;-61
2021/12/02 01:25:14;;;;;;;13.05;2.10;;;;;;;;;;5077875;28;20028;-61
2021/12/02 01:27:41;;;;;;;9.50;2.00;;;;;;;;;;5091634;28;20024;-61
2021/12/02 01:30:07;;;;;;;4.63;2.85;;;;;;;;;;5091502;28;20463;-61
2021/12/02 01:32:35;;;;;;;2.65;1.38;;;;;;;;;;5080691;28;20031;-61
2021/12/02 01:35:03;;;;;;;6.28;1.65;;;;;;;;;;5086965;28;20041;-61
2021/12/02 01:37:29;;;;;;;11.80;1.85;;;;;;;;;;5074645;28;20043;-61
2021/12/02 01:39:56;;;;;;;12.43;2.15;;;;;;;;;;5083215;28;20025;-61
2021/12/02 01:42:24;;;;;;;6.63;2.08;;;;;;;;;;5081165;28;20020;-61
2021/12/02 01:44:52;;;;;;;8.57;1.40;;;;;;;;;;5083545;28;20070;-61
2021/12/02 01:47:21;;;;;;;11.55;1.77;;;;;;;;;;5089953;28;20545;-61
2021/12/02 01:49:51;;;;;;;13.40;1.65;;;;;;;;;;5085448;28;20426;-62
2021/12/02 01:52:20;;;;;;;4.57;1.23;;;;;;;;;;5095258;28;20028;-61
2021/12/02 01:54:47;;;;;;;8.60;1.40;;;;;;;;;;5082876;28;20085;-61
2021/12/02 01:57:29;;;;;;;5.28;1.65;;;;;;;;;;5089115;28;20433;-61
2021/12/02 02:00:18;;;;;;;4.82;1.20;;;;;;;;;;5094000;28;20031;-61
2021/12/02 02:02:44;;;;;;;6.18;1.58;;;;;;;;;;5094465;28;20110;-61
2021/12/02 02:05:14;;;;;;;3.95;0.93;;;;;;;;;;5094493;28;20040;-61
2021/12/02 02:07:49;;;;;;;5.15;1.10;;;;;;;;;;5094679;28;20032;-61
2021/12/02 02:10:16;;;;;;;2.67;1.05;;;;;;;;;;5094704;28;20028;-61
2021/12/02 02:12:42;;;;;;;8.00;1.80;;;;;;;;;;5093947;28;20040;-61
2021/12/02 02:15:09;;;;;;;6.00;1.38;;;;;;;;;;5093431;28;20024;-61
2021/12/02 02:17:46;;;;;;;4.63;1.45;;;;;;;;;;5076356;28;20427;-61
2021/12/02 02:20:14;;;;;;;6.90;1.98;;;;;;;;;;5070502;28;20090;-61
2021/12/02 02:22:40;;;;;;;5.60;1.13;;;;;;;;;;5085473;28;20461;-61
2021/12/02 02:25:13;;;;;;;6.47;1.58;;;;;;;;;;5081817;28;20530;-61
2021/12/02 02:27:39;;;;;;;7.05;1.13;;;;;;;;;;5090845;28;20028;-61
2021/12/02 02:30:08;;;;;;;10.35;1.23;;;;;;;;;;5078052;28;20496;-61
2021/12/02 02:32:35;;;;;;;4.57;1.02;;;;;;;;;;5094544;28;20498;-61
2021/12/02 02:35:01;;;;;;;8.85;1.65;;;;;;;;;;5093741;28;20042;-62
2021/12/02 02:37:32;;;;;;;10.77;1.30;;;;;;;;;;5094598;28;20110;-61
2021/12/02 02:39:58;;;;;;;11.05;1.75;;;;;;;;;;5076670;28;20077;-61
2021/12/02 02:42:25;;;;;;;3.92;1.23;;;;;;;;;;5088067;28;20479;-61
2021/12/02 02:44:51;;;;;;;5.22;1.00;;;;;;;;;;5083687;28;20024;-61
2021/12/02 02:47:18;;;;;;;6.43;1.10;;;;;;;;;;5087201;28;20380;-61
2021/12/02 02:49:48;;;;;;;2.97;1.13;;;;;;;;;;5085812;28;20478;-61
2021/12/02 02:52:14;;;;;;;6.43;1.10;;;;;;;;;;5074037;28;20024;-61
2021/12/02 02:54:40;;;;;;;11.38;1.30;;;;;;;;;;5085001;28;20108;-61
2021/12/02 02:57:12;;;;;;;8.65;1.40;;;;;;;;;;5086381;28;20030;-61
2021/12/02 03:07:35;;;;;;;8.02;0.95;;;;;;;;;;5087371;28;20157;-61
2021/12/02 03:10:15;;;;;;;4.28;0.93;;;;;;;;;;5093222;28;20089;-61
2021/12/02 03:12:56;;;;;;;7.10;1.50;;;;;;;;;;5085511;28;20029;-62
2021/12/02 03:17:49;;;;;;;11.73;2.00;;;;;;;;;;5090107;28;20028;-61
2021/12/02 03:20:16;;;;;;;10.00;2.08;;;;;;;;;;5093087;28;20032;-61
2021/12/02 03:22:43;;;;;;;7.68;1.17;;;;;;;;;;5086022;28;20035;-61
2021/12/02 03:25:09;;;;;;;5.93;1.27;;;;;;;;;;5084997;28;20020;-62
2021/12/02 03:27:35;;;;;;;8.07;1.85;;;;;;;;;;5085672;28;20043;-62
2021/12/02 03:30:03;;;;;;;7.43;1.40;;;;;;;;;;5081636;28;20111;-61
2021/12/02 03:32:29;;;;;;;15.02;1.38;;;;;;;;;;5081391;28;20363;-61
2021/12/02 03:34:55;;;;;;;5.45;1.10;;;;;;;;;;5080994;28;20132;-61
2021/12/02 03:37:21;;;;;;;5.72;1.20;;;;;;;;;;5085658;28;20032;-62
2021/12/02 03:39:47;;;;;;;8.32;1.00;;;;;;;;;;5084226;28;20085;-61
2021/12/02 03:42:13;;;;;;;6.03;1.55;;;;;;;;;;5081920;28;20029;-61
2021/12/02 03:44:39;;;;;;;8.82;1.50;;;;;;;;;;5086452;28;20028;-61
2021/12/02 03:47:06;;;;;;;8.38;1.55;;;;;;;;;;5089508;28;20071;-61
2021/12/02 03:49:32;;;;;;;8.00;1.40;;;;;;;;;;5081195;28;20038;-61
2021/12/02 03:51:58;;;;;;;6.15;1.40;;;;;;;;;;5081113;28;20073;-62
2021/12/02 03:54:24;;;;;;;10.13;1.30;;;;;;;;;;5077283;28;20307;-61
2021/12/02 03:56:53;;;;;;;3.50;1.52;;;;;;;;;;5080411;28;20025;-61
2021/12/02 03:59:19;;;;;;;4.03;0.90;;;;;;;;;;5076548;28;20020;-61
2021/12/02 04:01:45;;;;;;;4.97;1.20;;;;;;;;;;5083793;28;20031;-61
2021/12/02 04:04:11;;;;;;;9.07;1.35;;;;;;;;;;5081255;28;20081;-61
2021/12/02 04:06:38;;;;;;;6.32;1.20;;;;;;;;;;5075130;28;20632;-61
2021/12/02 04:09:11;;;;;;;12.32;1.50;;;;;;;;;;5081323;28;20027;-61
2021/12/02 04:16:51;;;;;;;9.40;1.45;;;;;;;;;;5080602;28;20071;-61
2021/12/02 04:19:17;;;;;;;8.95;1.20;;;;;;;;;;5080221;28;20060;-61
2021/12/02 04:21:43;;;;;;;3.65;0.80;;;;;;;;;;5080261;28;20484;-61
2021/12/02 04:24:10;;;;;;;8.05;1.10;;;;;;;;;;5081854;28;20036;-61
2021/12/02 04:26:36;;;;;;;4.00;1.00;;;;;;;;;;5083981;28;20016;-61
2021/12/02 04:29:02;;;;;;;8.80;2.00;;;;;;;;;;5088637;28;20111;-61
2021/12/02 04:31:28;;;;;;;13.65;0.93;;;;;;;;;;5080540;28;20442;-61
2021/12/02 04:33:54;;;;;;;4.43;1.25;;;;;;;;;;5080776;28;20032;-61
2021/12/02 04:36:20;;;;;;;2.92;1.10;;;;;;;;;;5082859;28;20056;-61
2021/12/02 04:38:46;;;;;;;4.90;0.95;;;;;;;;;;5085030;28;20037;-61
2021/12/02 04:41:14;;;;;;;6.80;1.05;;;;;;;;;;5085890;28;20027;-61
2021/12/02 04:43:40;;;;;;;7.00;1.45;;;;;;;;;;5079609;28;20028;-61
2021/12/02 04:46:06;;;;;;;4.07;0.90;;;;;;;;;;5080966;28;20154;-61
2021/12/02 04:48:32;;;;;;;5.97;1.15;;;;;;;;;;5088146;28;20431;-62
2021/12/02 04:50:58;;;;;;;10.00;1.25;;;;;;;;;;5088925;28;20024;-61
2021/12/02 04:53:24;;;;;;;8.63;1.20;;;;;;;;;;5089152;28;20457;-61
2021/12/02 04:55:51;;;;;;;9.43;1.35;;;;;;;;;;5076832;28;20047;-61
2021/12/02 04:58:17;;;;;;;5.25;1.20;;;;;;;;;;5071525;28;20028;-62
2021/12/02 05:00:43;;;;;;;11.15;3.38;;;;;;;;;;5072211;28;20036;-61
2021/12/02 05:03:09;;;;;;;5.93;0.98;;;;;;;;;;5076024;28;20481;-61
2021/12/02 05:05:36;;;;;;;13.73;1.50;;;;;;;;;;5072225;28;20035;-61
2021/12/02 05:08:04;;;;;;;6.68;1.10;;;;;;;;;;5088035;28;20020;-61
2021/12/02 05:10:31;;;;;;;9.77;1.33;;;;;;;;;;5072278;28;20032;-61
2021/12/02 05:12:57;;;;;;;5.68;1.17;;;;;;;;;;5075723;28;20400;-61
2021/12/02 05:15:23;;;;;;;8.35;1.20;;;;;;;;;;5076243;28;20032;-61
2021/12/02 05:17:49;;;;;;;4.65;0.88;;;;;;;;;;5084841;28;20071;-61
2021/12/02 05:20:15;;;;;;;5.78;1.02;;;;;;;;;;5101263;28;20071;-61
2021/12/02 05:22:41;;;;;;;8.20;1.08;;;;;;;;;;5107732;28;20063;-61
2021/12/02 05:25:08;;;;;;;11.57;1.13;;;;;;;;;;5095855;28;20035;-61
2021/12/02 05:27:34;;;;;;;4.50;1.25;;;;;;;;;;5095862;28;20012;-61
2021/12/02 05:30:00;;;;;;;4.65;1.00;;;;;;;;;;5096425;28;20051;-61
2021/12/02 05:32:30;;;;;;;6.35;1.00;;;;;;;;;;5097169;28;20061;-61
2021/12/02 05:34:57;;;;;;;4.43;1.10;;;;;;;;;;5097717;28;20458;-61
2021/12/02 05:37:24;;;;;;;8.10;1.70;;;;;;;;;;5107447;28;20055;-61
2021/12/02 05:39:50;;;;;;;5.82;1.00;;;;;;;;;;5113665;28;20042;-61
2021/12/02 05:42:16;;;;;;;1.98;0.80;;;;;;;;;;5095128;28;20028;-61
2021/12/02 05:44:43;;;;;;;4.15;0.75;;;;;;;;;;5106419;28;20482;-61
2021/12/02 05:47:10;;;;;;;2.65;0.80;;;;;;;;;;5096807;28;20020;-62
2021/12/02 05:49:36;;;;;;;9.98;2.05;;;;;;;;;;5076336;28;20074;-62
2021/12/02 05:52:04;;;;;;;8.55;1.10;;;;;;;;;;5085162;28;20020;-63
2021/12/02 05:54:30;;;;;;;3.08;1.00;;;;;;;;;;5075104;28;20032;-62
2021/12/02 05:56:56;;;;;;;3.50;0.95;;;;;;;;;;5080964;28;20098;-63
2021/12/02 05:59:24;;;;;;;5.28;1.23;;;;;;;;;;5086618;28;20064;-62
2021/12/02 06:01:50;;;;;;;2.92;1.05;;;;;;;;;;5096499;28;20150;-62
2021/12/02 06:04:16;;;;;;;3.20;0.98;;;;;;;;;;5093699;28;20032;-62
2021/12/02 06:06:42;;;;;;;3.92;1.08;;;;;;;;;;5090707;28;20042;-62
2021/12/02 06:09:09;;;;;;;7.50;1.25;;;;;;;;;;5076980;28;20108;-62
2021/12/02 06:11:35;;;;;;;6.82;1.33;;;;;;;;;;5095240;28;20062;-63
2021/12/02 06:14:03;;;;;;;4.93;0.95;;;;;;;;;;5096110;28;20082;-63
2021/12/02 06:16:29;;;;;;;10.55;1.63;;;;;;;;;;5107693;28;20028;-63
2021/12/02 06:18:55;;;;;;;3.65;0.77;;;;;;;;;;5115087;28;20038;-63
2021/12/02 06:21:21;;;;;;;7.00;1.33;;;;;;;;;;5092521;28;20054;-63
2021/12/02 06:23:47;;;;;;;3.53;1.70;;;;;;;;;;5091097;28;20043;-63
2021/12/02 06:26:13;;;;;;;3.47;1.02;;;;;;;;;;5076742;28;20024;-63
2021/12/02 06:28:40;;;;;;;5.32;1.23;;;;;;;;;;5089594;28;20020;-63
2021/12/02 06:31:06;;;;;;;11.25;2.67;;;;;;;;;;5090512;28;20487;-63
2021/12/02 06:33:35;;;;;;;6.95;1.73;;;;;;;;;;5084603;28;20455;-63
2021/12/02 06:36:01;;;;;;;5.60;1.38;;;;;;;;;;5080170;28;20049;-62
2021/12/02 06:38:27;;;;;;;8.10;1.40;;;;;;;;;;5092409;28;20019;-63
2021/12/02 06:40:53;;;;;;;8.75;1.65;;;;;;;;;;5070617;28;20039;-63
2021/12/02 06:43:20;;;;;;;6.70;2.20;;;;;;;;;;5092518;28;20081;-63
2021/12/02 06:45:46;;;;;;;6.63;1.73;;;;;;;;;;5089155;28;20104;-62
2021/12/02 06:48:12;;;;;;;6.30;1.55;;;;;;;;;;5092564;28;20024;-62
2021/12/02 06:50:38;;;;;;;7.85;2.35;;;;;;;;;;5093585;28;20024;-62
2021/12/02 06:53:05;;;;;;;7.25;1.45;;;;;;;;;;5093976;28;20020;-62
2021/12/02 06:55:32;;;;;;;4.82;1.40;;;;;;;;;;5094059;28;20062;-62
2021/12/02 06:57:58;;;;;;;6.13;1.08;;;;;;;;;;5094048;28;20067;-62
2021/12/02 07:00:25;;;;;;;5.45;1.20;;;;;;;;;;5092412;28;20043;-62
2021/12/02 07:02:52;;;;;;;5.15;1.27;;;;;;;;;;5073907;28;20028;-62
2021/12/02 07:05:19;;;;;;;9.55;1.52;;;;;;;;;;5073925;28;20060;-62
2021/12/02 07:07:45;;;;;;;10.55;1.10;;;;;;;;;;5073989;28;20028;-62
2021/12/02 07:10:14;;;;;;;11.25;1.60;;;;;;;;;;5089642;28;20024;-62
2021/12/02 07:12:42;;;;;;;5.88;1.15;;;;;;;;;;5094014;28;20063;-63
2021/12/02 07:15:20;;;;;;;6.30;1.17;;;;;;;;;;5094061;28;20020;-63
2021/12/02 07:17:50;;;;;;;4.93;1.05;;;;;;;;;;5085203;28;20135;-62
2021/12/02 07:20:16;;;;;;;7.68;0.93;;;;;;;;;;5082164;28;20035;-63
2021/12/02 07:22:42;;;;;;;4.15;1.38;;;;;;;;;;5091322;28;20032;-63
2021/12/02 07:25:09;;;;;;;7.60;1.10;;;;;;;;;;5090351;28;20081;-63
2021/12/02 07:27:36;;;;;;;4.68;1.20;;;;;;;;;;5086011;28;20019;-63
2021/12/02 07:30:03;;;;;;;12.85;1.05;;;;;;;;;;5090410;28;20036;-63
2021/12/02 07:32:33;;;;;;;7.30;1.50;;;;;;;;;;5085597;28;20024;-63
2021/12/02 07:35:01;;;;;;;6.45;0.93;;;;;;;;;;5082271;28;20036;-63
2021/12/02 07:37:27;;;;;;;5.28;1.23;;;;;;;;;;5082629;28;20423;-63
2021/12/02 07:39:54;;;;;;;2.53;0.80;;;;;;;;;;5083953;28;20036;-63
2021/12/02 07:42:20;;;;;;;8.40;2.78;;;;;;;;;;5080036;28;20031;-63
2021/12/02 07:44:46;;;;;;;9.82;2.33;;;;;;;;;;5082986;28;20048;-63
2021/12/02 07:47:13;;;;;;;7.03;2.55;;;;;;;;;;5085595;28;20039;-63
2021/12/02 07:49:39;;;;;;;7.00;2.28;;;;;;;;;;5092078;28;20530;-63
2021/12/02 07:52:08;;;;;;;9.07;2.70;;;;;;;;;;5087012;28;20032;-63
2021/12/02 07:54:34;;;;;;;11.57;3.17;;;;;;;;;;5089748;28;20091;-63
2021/12/02 07:57:00;;;;;;;10.00;3.10;;;;;;;;;;5084734;28;20039;-63
2021/12/02 07:59:27;;;;;;;12.70;3.33;;;;;;;;;;5082902;28;20027;-63
2021/12/02 08:02:00;;;;;;;9.30;2.78;;;;;;;;;;5075395;28;20118;-63
2021/12/02 08:04:26;;;;;;;8.52;2.35;;;;;;;;;;5081457;28;20081;-62
2021/12/02 08:06:52;;;;;;;6.72;2.47;;;;;;;;;;5085195;28;20025;-62
2021/12/02 08:09:18;;;;;;;7.35;2.50;;;;;;;;;;5085153;28;20495;-62
2021/12/02 08:11:44;;;;;;;11.35;2.45;;;;;;;;;;5087635;28;20054;-62
2021/12/02 08:14:15;;;;;;;7.72;3.28;;;;;;;;;;5084462;28;20032;-62
2021/12/02 08:16:42;;;;;;;8.27;3.13;;;;;;;;;;5077548;28;20025;-62
2021/12/02 08:19:08;;;;;;;13.77;2.97;;;;;;;;;;5081781;28;20029;-62
2021/12/02 08:21:34;;;;;;;7.07;1.80;;;;;;;;;;5081617;28;20111;-62
2021/12/02 08:24:00;;;;;;;5.68;1.20;;;;;;;;;;5081469;28;20016;-62
2021/12/02 08:26:26;;;;;;;3.92;0.95;;;;;;;;;;5081621;28;20549;-62
2021/12/02 08:28:52;;;;;;;6.93;1.67;;;;;;;;;;5085239;28;20368;-62
2021/12/02 08:31:19;;;;;;;7.78;1.25;;;;;;;;;;5079650;28;20058;-62
2021/12/02 08:33:48;;;;;;;14.00;1.73;;;;;;;;;;5086438;28;20094;-62
2021/12/02 08:36:14;;;;;;;6.05;1.30;;;;;;;;;;5085304;28;20079;-62
2021/12/02 08:38:40;;;;;;;13.00;1.80;;;;;;;;;;5080922;28;20380;-62
2021/12/02 08:41:07;;;;;;;12.68;1.90;;;;;;;;;;5083952;28;20066;-62
2021/12/02 08:43:33;;;;;;;8.90;1.92;;;;;;;;;;5088066;28;20036;-62
2021/12/02 08:45:59;;;;;;;6.63;1.60;;;;;;;;;;5082825;28;20555;-62
2021/12/02 08:48:25;;;;;;;11.15;2.22;;;;;;;;;;5087349;28;20389;-62
2021/12/02 08:50:51;;;;;;;11.63;2.30;;;;;;;;;;5086449;28;20056;-62
2021/12/02 08:53:17;;;;;;;20.77;2.83;;;;;;;;;;5090740;28;20035;-62
2021/12/02 08:55:44;;;;;;;11.57;1.80;;;;;;;;;;5094063;28;20026;-62
2021/12/02 08:58:10;;;;;;;14.68;2.72;;;;;;;;;;5088250;28;20024;-62
2021/12/02 09:00:40;;;;;;;16.30;2.55;;;;;;;;;;5085512;28;20073;-62
2021/12/02 09:03:10;;;;;;;14.32;2.00;;;;;;;;;;5090849;28;20016;-62
2021/12/02 09:05:36;;;;;;;16.98;2.20;;;;;;;;;;5084319;28;20024;-62
2021/12/02 09:08:03;;;;;;;9.90;1.50;;;;;;;;;;5081733;28;20062;-62
2021/12/02 09:10:29;;;;;;;14.77;2.42;;;;;;;;;;5086455;28;20043;-62
2021/12/02 09:12:56;;;;;;;11.98;2.85;;;;;;;;;;5084222;28;20050;-62
2021/12/02 09:15:22;;;;;;;8.35;1.55;;;;;;;;;;5065582;28;20028;-62
2021/12/02 09:17:48;;;;;;;16.13;1.80;;;;;;;;;;5090075;28;20116;-62
2021/12/02 09:20:15;;;;;;;16.13;2.03;;;;;;;;;;5087114;28;20169;-62
2021/12/02 09:22:45;;;;;;;9.70;2.25;;;;;;;;;;5080513;28;20020;-62
2021/12/02 09:25:13;;;;;;;9.18;2.50;;;;;;;;;;5076180;28;20021;-62
2021/12/02 09:27:39;;;;;;;5.93;1.48;;;;;;;;;;5091658;28;20024;-62
2021/12/02 09:30:06;;;;;;;8.63;1.58;;;;;;;;;;5080524;28;20028;-62
2021/12/02 09:32:33;;;;;;;5.75;1.58;;;;;;;;;;5083218;28;20016;-62
2021/12/02 09:34:59;;;;;;;14.35;2.40;;;;;;;;;;5082066;28;20492;-62
2021/12/02 09:37:25;;;;;;;20.58;2.88;;;;;;;;;;5092588;28;20032;-63
2021/12/02 09:39:51;;;;;;;11.90;1.65;;;;;;;;;;5085419;28;20100;-63
2021/12/02 09:42:18;;;;;;;9.77;2.35;;;;;;;;;;5087195;28;20052;-63
2021/12/02 09:44:46;;;;;;;11.80;1.85;;;;;;;;;;5082867;28;20033;-62
2021/12/02 09:47:13;;;;;;;12.10;1.77;;;;;;;;;;5085706;28;20475;-62
2021/12/02 09:49:39;;;;;;;12.45;1.75;;;;;;;;;;5079002;28;20028;-62
2021/12/02 09:52:10;;;;;;;7.63;1.30;;;;;;;;;;5075112;28;20024;-63
2021/12/02 09:54:47;;;;;;;10.05;1.67;;;;;;;;;;5094421;28;20024;-63
2021/12/02 09:57:17;;;;;;;17.63;1.77;;;;;;;;;;5093055;28;20357;-62
2021/12/02 10:02:13;;;;;;;9.38;1.45;;;;;;;;;;5083152;28;20097;-63
2021/12/02 10:04:46;;;;;;;14.32;1.40;;;;;;;;;;5086742;28;20032;-63
2021/12/02 10:07:36;;;;;;;6.78;1.08;;;;;;;;;;5085482;28;20043;-63
2021/12/02 10:10:28;;;;;;;8.10;0.98;;;;;;;;;;5093034;28;20036;-62
2021/12/02 10:13:25;;;;;;;6.25;1.00;;;;;;;;;;5093122;28;20063;-63
2021/12/02 10:16:04;;;;;;;7.50;1.33;;;;;;;;;;5094082;28;20046;-63
2021/12/02 10:18:41;;;;;;;4.85;0.98;;;;;;;;;;5086517;28;20028;-63
2021/12/02 10:21:17;;;;;;;6.75;1.45;;;;;;;;;;5082067;28;20058;-63
2021/12/02 10:23:46;;;;;;;8.25;1.08;;;;;;;;;;5088567;28;20038;-63
2021/12/02 10:26:13;;;;;;;6.03;1.13;;;;;;;;;;5081176;28;20054;-63
2021/12/02 10:28:43;;;;;;;6.32;1.17;;;;;;;;;;5079705;28;20055;-63
2021/12/02 10:31:10;;;;;;;9.80;1.25;;;;;;;;;;5081477;28;20067;-63
2021/12/02 10:33:36;;;;;;;10.48;1.40;;;;;;;;;;5084906;28;20020;-63
2021/12/02 10:36:03;;;;;;;6.28;2.38;;;;;;;;;;5083892;28;20052;-63
2021/12/02 10:38:39;;;;;;;8.35;1.40;;;;;;;;;;5063211;28;20452;-63
2021/12/02 10:41:09;;;;;;;13.20;1.60;;;;;;;;;;5081071;28;20035;-63
2021/12/02 10:43:36;;;;;;;6.80;1.50;;;;;;;;;;5084734;28;20468;-63
2021/12/02 10:46:13;;;;;;;14.73;3.25;;;;;;;;;;5083745;28;20020;-62
2021/12/02 10:48:52;;;;;;;6.40;1.52;;;;;;;;;;5088414;28;20502;-63
2021/12/02 10:51:34;;;;;;;13.23;2.72;;;;;;;;;;5092445;28;20057;-63
2021/12/02 10:54:01;;;;;;;8.98;1.45;;;;;;;;;;5092271;28;20039;-63
2021/12/02 10:56:32;;;;;;;6.18;2.17;;;;;;;;;;5092232;28;20024;-62
2021/12/02 10:58:58;;;;;;;7.88;1.15;;;;;;;;;;5092507;28;20077;-62
2021/12/02 11:01:40;;;;;;;5.15;1.38;;;;;;;;;;5092386;28;20028;-62
2021/12/02 11:04:07;;;;;;;9.85;1.80;;;;;;;;;;5091918;28;20028;-63
2021/12/02 11:06:42;;;;;;;5.72;1.10;;;;;;;;;;5092471;28;20020;-63
2021/12/02 11:09:30;;;;;;;6.80;1.10;;;;;;;;;;5091680;28;20566;-62
2021/12/02 11:12:07;;;;;;;12.07;1.08;;;;;;;;;;5091499;28;20054;-63
2021/12/02 11:14:33;;;;;;;5.30;1.08;;;;;;;;;;5076166;28;20031;-62
2021/12/02 11:17:15;;;;;;;6.95;1.35;;;;;;;;;;5092773;28;20030;-62
2021/12/02 11:19:43;;;;;;;8.45;1.35;;;;;;;;;;5090080;28;20519;-63
2021/12/02 11:22:11;;;;;;;5.93;1.10;;;;;;;;;;5091847;28;20035;-63
2021/12/02 11:24:37;;;;;;;7.30;1.52;;;;;;;;;;5092390;28;20036;-63
2021/12/02 11:27:22;;;;;;;14.18;1.50;;;;;;;;;;5084228;28;20020;-63
2021/12/02 11:29:48;;;;;;;3.90;0.95;;;;;;;;;;5079139;28;20028;-62
2021/12/02 11:32:29;;;;;;;6.72;1.00;;;;;;;;;;5080737;28;20435;-63
2021/12/02 11:35:08;;;;;;;4.38;1.02;;;;;;;;;;5083615;28;20516;-63
2021/12/02 11:37:36;;;;;;;2.80;0.90;;;;;;;;;;5078169;28;20028;-63
2021/12/02 11:40:04;;;;;;;6.70;0.90;;;;;;;;;;5099182;28;20037;-63
2021/12/02 11:42:31;;;;;;;5.45;1.30;;;;;;;;;;5094114;28;20069;-62
2021/12/02 11:44:57;;;;;;;7.07;1.40;;;;;;;;;;5091210;28;20028;-63
2021/12/02 11:47:24;;;;;;;6.10;1.20;;;;;;;;;;5089953;28;20020;-63
2021/12/02 11:49:50;;;;;;;5.75;1.30;;;;;;;;;;5084821;28;20067;-62
2021/12/02 11:52:17;;;;;;;13.70;2.05;;;;;;;;;;5081035;28;20032;-66
2021/12/02 11:54:44;;;;;;;5.95;1.40;;;;;;;;;;5088214;28;20524;-63
2021/12/02 11:57:10;;;;;;;5.28;1.38;;;;;;;;;;5086622;28;20453;-62
2021/12/02 11:59:36;;;;;;;12.15;2.03;;;;;;;;;;5084061;28;20042;-62
2021/12/02 12:02:03;;;;;;;6.40;1.80;;;;;;;;;;5094000;28;20031;-62
2021/12/02 12:04:29;;;;;;;9.93;2.17;;;;;;;;;;5088955;28;20028;-62
2021/12/02 12:07:08;;;;;;;14.07;2.88;;;;;;;;;;5084511;28;20036;-62
2021/12/02 12:09:34;;;;;;;12.63;2.22;;;;;;;;;;5087791;28;20024;-62
2021/12/02 12:12:02;;;;;;;19.33;3.63;;;;;;;;;;5087616;28;20063;-62
2021/12/02 12:14:42;;;;;;;11.27;2.38;;;;;;;;;;5084611;28;20106;-62
2021/12/02 12:17:09;;;;;;;12.30;2.35;;;;;;;;;;5071730;28;20391;-62
2021/12/02 12:19:40;;;;;;;10.40;1.95;;;;;;;;;;5086181;28;20036;-62
2021/12/02 12:22:08;;;;;;;7.50;1.33;;;;;;;;;;5087057;28;20042;-62
2021/12/02 12:24:40;;;;;;;9.77;1.85;;;;;;;;;;5087660;28;20016;-63
2021/12/02 12:27:17;;;;;;;10.30;1.77;;;;;;;;;;5087289;28;20028;-63
2021/12/02 12:29:44;;;;;;;6.15;1.27;;;;;;;;;;5086026;28;20031;-63
2021/12/02 12:32:35;;;;;;;4.32;1.00;;;;;;;;;;5090206;28;20488;-63
2021/12/02 12:35:06;;;;;;;2.45;1.00;;;;;;;;;;5110424;28;20047;-65
2021/12/02 12:40:04;;;;;;;6.78;1.15;;;;;;;;;;5089183;28;20115;-63
2021/12/02 12:42:31;;;;;;;9.27;1.20;;;;;;;;;;5094945;28;20406;-63
2021/12/02 12:44:58;;;;;;;10.73;1.58;;;;;;;;;;5092368;28;20020;-63
2021/12/02 12:47:47;;;;;;;4.38;1.30;;;;;;;;;;5092649;28;20488;-63
2021/12/02 12:50:28;;;;;;;17.63;1.83;;;;;;;;;;5091122;28;20412;-63
2021/12/02 12:53:07;;;;;;;5.78;1.50;;;;;;;;;;5092030;28;20028;-63
2021/12/02 12:55:38;;;;;;;4.38;1.10;;;;;;;;;;5091815;28;20035;-63
2021/12/02 12:58:07;;;;;;;11.23;1.88;;;;;;;;;;5092217;28;20028;-63
2021/12/02 13:00:42;;;;;;;11.13;1.92;;;;;;;;;;5091637;28;20028;-64
2021/12/02 13:03:15;;;;;;;4.32;1.05;;;;;;;;;;5091989;28;20027;-64
2021/12/02 13:05:59;;;;;;;4.90;1.10;;;;;;;;;;5091184;28;20472;-64
2021/12/02 13:08:39;;;;;;;7.95;1.42;;;;;;;;;;5091947;28;20036;-64
2021/12/02 13:11:13;;;;;;;4.28;1.20;;;;;;;;;;5091772;28;20043;-64
2021/12/02 13:13:40;;;;;;;6.20;0.93;;;;;;;;;;5091556;28;20085;-64
2021/12/02 13:16:21;;;;;;;6.28;1.10;;;;;;;;;;5091867;28;20020;-64
2021/12/02 13:18:47;;;;;;;5.78;1.10;;;;;;;;;;5091731;28;20403;-64
2021/12/02 13:21:29;;;;;;;6.78;1.30;;;;;;;;;;5091324;28;20035;-64
2021/12/02 13:24:11;;;;;;;4.10;1.15;;;;;;;;;;5091654;28;20024;-64
2021/12/02 13:26:39;;;;;;;6.20;0.90;;;;;;;;;;5091470;28;20115;-64
2021/12/02 13:29:07;;;;;;;8.25;1.10;;;;;;;;;;5091787;28;20020;-64
2021/12/02 13:31:34;;;;;;;6.63;1.25;;;;;;;;;;5091652;28;20028;-64
2021/12/02 13:34:02;;;;;;;9.13;2.08;;;;;;;;;;5092487;28;20020;-64
2021/12/02 13:36:33;;;;;;;6.82;0.80;;;;;;;;;;5095339;28;20086;-64
2021/12/02 13:39:11;;;;;;;3.17;1.27;;;;;;;;;;5095178;28;20067;-64
2021/12/02 13:41:39;;;;;;;6.50;1.15;;;;;;;;;;5094996;28;20123;-64
2021/12/02 13:44:13;;;;;;;6.95;1.30;;;;;;;;;;5095389;28;20484;-64
2021/12/02 13:46:44;;;;;;;5.55;0.98;;;;;;;;;;5094936;28;20028;-63
2021/12/02 13:49:13;;;;;;;6.35;1.27;;;;;;;;;;5095033;28;20039;-63
2021/12/02 13:54:33;;;;;;;5.80;1.00;;;;;;;;;;5094816;28;20035;-63
2021/12/02 13:57:01;;;;;;;3.90;0.90;;;;;;;;;;5094907;28;20024;-63
2021/12/02 13:59:37;;;;;;;6.55;1.00;;;;;;;;;;5095092;28;20054;-63
2021/12/02 14:02:03;;;;;;;6.72;1.10;;;;;;;;;;5076702;28;20400;-63
2021/12/02 14:04:29;;;;;;;3.65;0.82;;;;;;;;;;5094606;28;20059;-63
2021/12/02 14:07:11;;;;;;;5.40;0.82;;;;;;;;;;5094691;28;20051;-63
2021/12/02 14:09:45;;;;;;;3.00;0.75;;;;;;;;;;5094752;28;20135;-64
2021/12/02 14:12:12;;;;;;;8.13;1.10;;;;;;;;;;5094671;28;20020;-64
2021/12/02 14:14:38;;;;;;;7.30;1.20;;;;;;;;;;5094882;28;20472;-64
2021/12/02 14:17:07;;;;;;;3.13;1.30;;;;;;;;;;5094413;28;20039;-64
2021/12/02 14:19:33;;;;;;;4.38;0.73;;;;;;;;;;5094428;28;20107;-64
2021/12/02 14:21:59;;;;;;;7.65;1.15;;;;;;;;;;5076228;28;20424;-64
2021/12/02 14:24:25;;;;;;;8.40;1.20;;;;;;;;;;5094636;28;20043;-64
2021/12/02 14:26:51;;;;;;;4.90;1.17;;;;;;;;;;5094158;28;20063;-64
2021/12/02 14:29:17;;;;;;;7.63;1.25;;;;;;;;;;5094602;28;20432;-64
2021/12/02 14:31:43;;;;;;;4.10;0.90;;;;;;;;;;5094147;28;20028;-64
2021/12/02 14:34:11;;;;;;;6.68;0.90;;;;;;;;;;5094079;28;20392;-64
2021/12/02 14:36:42;;;;;;;6.15;1.08;;;;;;;;;;5093826;28;20050;-64
2021/12/02 14:39:13;;;;;;;9.60;1.25;;;;;;;;;;5094195;28;20036;-64
2021/12/02 14:41:41;;;;;;;5.32;0.80;;;;;;;;;;5093856;28;20032;-64
2021/12/02 14:44:12;;;;;;;5.90;0.93;;;;;;;;;;5094226;28;20157;-64
2021/12/02 14:46:42;;;;;;;4.22;0.98;;;;;;;;;;5093403;28;20029;-64
2021/12/02 14:49:08;;;;;;;7.40;1.05;;;;;;;;;;5093984;28;20036;-64
2021/12/02 14:52:04;;;;;;;5.03;1.40;;;;;;;;;;5093955;28;20024;-64
2021/12/02 14:54:35;;;;;;;2.92;0.63;;;;;;;;;;5063327;28;20050;-64
2021/12/02 14:57:20;;;;;;;3.58;0.88;;;;;;;;;;5093521;28;20059;-64
2021/12/02 14:59:58;;;;;;;2.95;0.90;;;;;;;;;;5093702;28;20027;-64
2021/12/02 15:02:26;;;;;;;4.18;0.85;;;;;;;;;;5093310;28;20028;-64
2021/12/02 15:04:54;;;;;;;3.55;1.13;;;;;;;;;;5093612;28;20024;-64
2021/12/02 15:07:31;;;;;;;6.20;1.10;;;;;;;;;;5093684;28;20032;-64
2021/12/02 15:09:59;;;;;;;2.38;1.00;;;;;;;;;;5093543;28;20391;-64
2021/12/02 15:12:27;;;;;;;5.65;1.00;;;;;;;;;;5093507;28;20024;-64
2021/12/02 15:14:55;;;;;;;7.88;1.35;;;;;;;;;;5093606;28;20027;-64
2021/12/02 15:17:33;;;;;;;2.58;0.90;;;;;;;;;;5093009;28;20042;-64